Time;durP1;ratioP1;P1;durP2;ratioP2;P2;SDS_P1;SDS_P2;PMS_P1;PMS_P2;Temp;Humidity;BMP_temperature;BMP_pressure;BME280_temperature;BME280_humidity;BME280_pressure;Samples;Min_cycle;Max_cycle;Signal;HPM_P1;HPM_P2
2023/02/02 00:01:55;;;;;;;;;20.00;19.00;;;;;7.50;69.54;101994.59;4974370;28;45517;-74
2023/02/02 00:04:29;;;;;;;;;18.75;18.00;;;;;7.68;69.53;102028.56;4973617;27;46317;-74
2023/02/02 00:06:57;;;;;;;;;27.00;25.25;;;;;7.67;68.95;102037.28;4971821;28;45540;-73
2023/02/02 00:09:27;;;;;;;;;16.75;16.75;;;;;7.64;69.52;102028.56;4972211;28;45454;-74
2023/02/02 00:11:53;;;;;;;;;17.50;17.25;;;;;7.62;69.11;102039.06;4972137;28;45481;-74
2023/02/02 00:14:18;;;;;;;;;34.75;31.00;;;;;7.59;69.62;102039.09;4972709;28;46262;-73
2023/02/02 00:16:47;;;;;;;;;55.50;43.50;;;;;7.56;69.66;102036.47;4972859;28;45516;-70
2023/02/02 00:19:16;;;;;;;;;42.75;36.00;;;;;7.51;69.99;102039.09;4973259;28;45354;-73
2023/02/02 00:21:42;;;;;;;;;30.75;29.50;;;;;7.44;70.33;102029.53;4974045;28;45519;-74
2023/02/02 00:24:10;;;;;;;;;71.50;51.00;;;;;7.45;69.56;102031.28;4973194;28;46207;-74
2023/02/02 00:26:37;;;;;;;;;75.50;60.75;;;;;7.43;70.22;102035.63;4973521;28;45352;-71
2023/02/02 00:29:03;;;;;;;;;52.25;42.00;;;;;7.40;69.85;102033.03;4975282;28;45213;-73
2023/02/02 00:31:29;;;;;;;;;71.50;57.50;;;;;7.37;70.05;102027.81;4974355;28;45331;-73
2023/02/02 00:33:54;;;;;;;;;65.25;50.50;;;;;7.30;70.28;102019.09;4973874;28;49608;-72
2023/02/02 00:36:20;;;;;;;;;66.00;50.00;;;;;7.26;70.32;102020.88;4973820;28;45290;-73
2023/02/02 00:38:47;;;;;;;;;75.75;57.50;;;;;7.28;70.33;102024.34;4989698;28;45146;-71
2023/02/02 00:41:13;;;;;;;;;55.25;45.25;;;;;7.21;70.85;102020.00;4974381;28;45379;-68
2023/02/02 00:43:38;;;;;;;;;51.50;43.00;;;;;7.21;70.53;102024.34;4972561;28;45814;-70
2023/02/02 00:46:04;;;;;;;;;50.00;40.75;;;;;7.25;70.71;102026.97;4972593;28;45654;-69
2023/02/02 00:48:30;;;;;;;;;53.75;41.00;;;;;7.24;70.45;102033.09;4972925;28;45521;-70
2023/02/02 00:50:56;;;;;;;;;40.00;34.25;;;;;7.22;70.48;102028.72;4971291;28;45328;-75
2023/02/02 00:53:21;;;;;;;;;39.00;33.00;;;;;7.20;71.26;102023.50;4972408;28;45426;-72
2023/02/02 00:55:46;;;;;;;;;24.00;24.00;;;;;7.19;71.16;102031.34;4972482;28;45509;-75
2023/02/02 00:58:12;;;;;;;;;50.50;36.50;;;;;7.15;71.21;102023.50;4972004;28;45244;-72
2023/02/02 01:00:37;;;;;;;;;32.75;30.75;;;;;7.18;70.84;102030.50;4972301;28;54485;-74
2023/02/02 01:03:03;;;;;;;;;24.00;19.00;;;;;7.12;71.14;102018.28;4973070;28;46229;-69
2023/02/02 01:05:30;;;;;;;;;28.00;27.25;;;;;7.13;70.83;102021.78;4972685;28;45364;-75
2023/02/02 01:07:55;;;;;;;;;10.50;10.50;;;;;7.06;71.73;102007.81;4973243;28;45235;-74
2023/02/02 01:10:20;;;;;;;;;19.25;18.50;;;;;7.09;71.57;102005.19;4973292;28;45327;-69
2023/02/02 01:12:46;;;;;;;;;26.50;21.00;;;;;7.09;71.09;102002.59;4972251;28;46033;-72
2023/02/02 01:15:12;;;;;;;;;21.75;19.50;;;;;7.09;72.21;102002.59;4972355;28;45258;-69
2023/02/02 01:17:38;;;;;;;;;19.50;17.25;;;;;7.08;71.29;102006.06;4971682;28;45461;-72
2023/02/02 01:20:05;;;;;;;;;16.00;16.00;;;;;7.08;72.12;102002.59;4952172;28;45468;-72
2023/02/02 01:22:32;;;;;;;;;11.75;11.75;;;;;7.07;71.48;102012.19;4973297;28;46537;-73
2023/02/02 01:24:58;;;;;;;;;18.25;16.25;;;;;7.05;71.67;102007.84;4971664;28;45792;-74
2023/02/02 01:27:24;;;;;;;;;11.25;11.25;;;;;7.06;71.23;102022.66;4972660;28;45343;-73
2023/02/02 01:29:49;;;;;;;;;15.75;14.75;;;;;7.01;72.30;102015.69;4973059;28;45464;-72
2023/02/02 01:32:14;;;;;;;;;12.50;12.00;;;;;6.98;72.43;102009.59;4970563;28;61522;-71
2023/02/02 01:34:40;;;;;;;;;16.00;15.00;;;;;6.97;72.07;102010.47;4972080;28;51251;-72
2023/02/02 01:37:07;;;;;;;;;19.00;17.25;;;;;6.94;72.29;102002.63;4973716;28;45262;-72
2023/02/02 01:39:32;;;;;;;;;8.75;8.75;;;;;6.94;72.31;102003.50;4975390;28;45511;-69
2023/02/02 01:41:57;;;;;;;;;14.75;12.00;;;;;6.96;71.99;102021.81;4975934;28;46269;-72
2023/02/02 01:44:50;;;;;;;;;19.75;16.75;;;;;6.95;72.87;102020.06;4975493;28;45264;-70
2023/02/02 01:47:18;;;;;;;;;12.00;10.75;;;;;6.95;72.33;102027.91;4976354;28;45245;-71
2023/02/02 01:49:44;;;;;;;;;11.50;11.50;;;;;6.82;71.96;102003.50;4976078;28;45477;-71
2023/02/02 01:52:12;;;;;;;;;13.75;11.75;;;;;6.89;72.81;102020.94;4964944;28;45680;-71
2023/02/02 01:54:43;;;;;;;;;11.25;11.00;;;;;6.90;72.43;102021.81;4976045;28;45469;-74
2023/02/02 01:57:17;;;;;;;;;8.75;7.25;;;;;6.90;72.32;102027.03;4976108;28;45535;-74
2023/02/02 01:59:46;;;;;;;;;7.50;7.50;;;;;6.90;72.15;102022.72;4974873;28;45442;-74
2023/02/02 02:02:12;;;;;;;;;8.25;7.25;;;;;6.91;71.83;102028.78;4975839;28;46860;-72
2023/02/02 02:04:39;;;;;;;;;5.75;5.75;;;;;6.87;72.64;102026.19;4975477;28;45525;-74
2023/02/02 02:07:05;;;;;;;;;8.00;7.25;;;;;6.89;72.04;102033.16;4975688;28;45304;-69
2023/02/02 02:09:32;;;;;;;;;8.50;8.50;;;;;6.89;72.11;102027.91;4975295;28;45286;-72
2023/02/02 02:11:58;;;;;;;;;5.00;5.00;;;;;6.86;72.63;102028.78;4974880;28;45551;-70
2023/02/02 02:17:16;;;;;;;;;7.75;6.50;;;;;6.86;72.11;102034.91;4977431;28;45437;-69
2023/02/02 02:26:39;;;;;;;;;7.00;7.00;;;;;6.80;72.38;102027.06;4976151;28;45311;-71
2023/02/02 02:29:10;;;;;;;;;7.75;7.75;;;;;6.79;72.73;102030.56;4979500;28;45283;-72
2023/02/02 02:31:38;;;;;;;;;11.25;9.75;;;;;6.75;72.86;102023.59;4981428;28;45430;-75
2023/02/02 02:34:19;;;;;;;;;7.00;7.00;;;;;6.64;72.62;102017.50;4977062;28;45308;-73
2023/02/02 02:37:00;;;;;;;;;5.50;5.50;;;;;6.69;73.05;102036.66;4976078;28;45227;-74
2023/02/02 02:40:10;;;;;;;;;8.00;8.00;;;;;6.69;72.74;102041.91;4975952;28;45243;-69
2023/02/02 02:42:45;;;;;;;;;6.25;6.25;;;;;6.64;73.14;102041.03;4973907;28;45593;-74
2023/02/02 02:45:12;;;;;;;;;9.00;6.00;;;;;6.67;72.90;102052.34;4975651;28;46144;-75
2023/02/02 02:47:40;;;;;;;;;6.25;6.25;;;;;6.47;72.77;102009.66;4975829;28;45251;-72
2023/02/02 02:50:08;;;;;;;;;6.75;6.50;;;;;6.60;73.22;102036.66;4975191;28;45416;-73
2023/02/02 02:52:35;;;;;;;;;8.25;6.25;;;;;6.64;72.85;102036.66;4974236;28;45504;-73
2023/02/02 02:55:04;;;;;;;;;5.00;5.00;;;;;6.63;73.54;102034.06;4977678;28;46188;-72
2023/02/02 02:57:57;;;;;;;;;6.50;6.50;;;;;6.62;73.18;102034.94;4976327;28;45497;-70
2023/02/02 03:00:28;;;;;;;;;8.50;8.50;;;;;6.63;73.43;102039.28;4975573;28;45278;-71
2023/02/02 03:03:23;;;;;;;;;4.50;4.50;;;;;6.60;73.01;102031.44;4975158;28;45669;-72
2023/02/02 03:06:13;;;;;;;;;6.00;6.00;;;;;6.60;73.10;102031.44;5003290;28;45861;-70
2023/02/02 03:08:48;;;;;;;;;4.50;4.50;;;;;6.57;72.98;102025.34;4974845;28;45446;-74
2023/02/02 03:11:15;;;;;;;;;4.75;4.75;;;;;6.56;73.49;102031.44;4974208;28;45284;-71
2023/02/02 03:13:42;;;;;;;;;10.50;6.50;;;;;6.52;73.87;102020.97;4975346;28;45308;-72
2023/02/02 03:16:08;;;;;;;;;8.50;8.50;;;;;6.57;73.11;102034.91;4976131;28;45393;-74
2023/02/02 03:18:34;;;;;;;;;4.50;4.00;;;;;6.55;73.84;102036.66;4977471;28;45481;-72
2023/02/02 03:21:00;;;;;;;;;6.25;5.75;;;;;6.57;72.89;102040.13;4975033;28;45341;-72
2023/02/02 03:23:26;;;;;;;;;5.00;4.00;;;;;6.53;73.58;102031.44;4975175;28;45561;-74
2023/02/02 03:25:51;;;;;;;;;2.25;2.25;;;;;6.54;72.89;102027.06;4975540;28;45450;-73
2023/02/02 03:28:17;;;;;;;;;6.25;5.25;;;;;6.53;73.29;102031.44;4976683;28;45708;-70
2023/02/02 03:30:45;;;;;;;;;5.25;5.25;;;;;6.53;73.71;102034.06;4974840;28;45340;-72
2023/02/02 03:33:12;;;;;;;;;4.00;4.00;;;;;6.47;73.66;102028.81;4975099;28;45618;-74
2023/02/02 03:35:37;;;;;;;;;6.00;6.00;;;;;6.57;73.11;102041.03;4971419;28;45526;-72
2023/02/02 03:38:02;;;;;;;;;7.50;5.75;;;;;6.58;73.44;102041.88;4974811;28;45387;-74
2023/02/02 03:40:28;;;;;;;;;4.75;4.00;;;;;6.58;73.28;102039.25;4973095;28;45510;-75
2023/02/02 03:42:54;;;;;;;;;8.50;7.75;;;;;6.58;73.58;102044.50;4972872;28;45471;-70
2023/02/02 03:45:20;;;;;;;;;4.00;4.00;;;;;6.57;73.22;102054.09;4973960;28;46180;-69
2023/02/02 03:47:45;;;;;;;;;5.00;5.00;;;;;6.53;73.20;102047.13;4973215;28;45462;-68
2023/02/02 03:50:11;;;;;;;;;6.50;6.00;;;;;6.55;73.47;102052.34;4974342;28;45458;-69
2023/02/02 03:52:36;;;;;;;;;5.00;5.00;;;;;6.57;73.90;102056.72;4975253;28;45544;-73
2023/02/02 03:55:02;;;;;;;;;6.25;6.00;;;;;6.60;73.29;102061.06;4974147;28;48747;-74
2023/02/02 03:57:27;;;;;;;;;6.00;6.00;;;;;6.65;72.86;102058.47;4977802;28;45521;-71
2023/02/02 03:59:52;;;;;;;;;4.25;4.25;;;;;6.67;73.45;102056.72;4978785;28;45280;-74
2023/02/02 04:02:18;;;;;;;;;6.50;6.50;;;;;6.70;73.08;102057.56;4975492;28;45236;-72
2023/02/02 04:04:43;;;;;;;;;6.00;5.75;;;;;6.63;73.07;102034.06;4974220;28;46780;-71
2023/02/02 04:07:09;;;;;;;;;4.25;4.25;;;;;6.76;73.28;102059.31;4973590;28;45302;-72
2023/02/02 04:09:34;;;;;;;;;5.00;5.00;;;;;6.83;73.40;102058.44;4973247;28;45366;-69
2023/02/02 04:11:59;;;;;;;;;4.25;4.25;;;;;6.90;72.80;102061.06;4972029;28;45589;-71
2023/02/02 04:14:25;;;;;;;;;5.00;4.50;;;;;6.96;72.50;102072.41;4975183;28;45227;-70
2023/02/02 04:16:50;;;;;;;;;8.50;8.25;;;;;7.00;72.30;102061.06;4973165;28;45300;-70
2023/02/02 04:19:15;;;;;;;;;5.50;5.50;;;;;7.03;72.47;102056.69;4973355;28;45396;-72
2023/02/02 04:21:41;;;;;;;;;4.25;4.25;;;;;7.07;72.28;102051.44;4972502;28;45358;-71
2023/02/02 04:24:10;;;;;;;;;3.50;3.50;;;;;7.08;72.72;102062.78;4973347;28;46641;-71
2023/02/02 04:26:35;;;;;;;;;6.00;5.25;;;;;7.08;71.95;102058.41;4973052;28;45406;-70
2023/02/02 04:29:01;;;;;;;;;4.50;4.00;;;;;7.11;72.15;102060.16;4973426;28;45315;-69
2023/02/02 04:31:28;;;;;;;;;4.50;4.50;;;;;7.08;72.53;102047.94;4974030;28;45386;-71
2023/02/02 04:33:54;;;;;;;;;5.50;5.00;;;;;7.11;71.95;102055.78;4973718;28;45373;-71
2023/02/02 04:36:20;;;;;;;;;4.00;4.00;;;;;7.14;72.57;102061.00;4972790;28;45310;-70
2023/02/02 04:38:51;;;;;;;;;4.25;4.25;;;;;7.10;72.08;102040.97;4973079;28;45348;-71
2023/02/02 04:41:20;;;;;;;;;6.75;5.00;;;;;7.22;72.49;102058.41;4973135;28;45310;-68
2023/02/02 04:43:46;;;;;;;;;5.25;5.25;;;;;7.23;71.82;102054.91;4973323;28;45343;-74
2023/02/02 04:46:12;;;;;;;;;5.00;5.00;;;;;7.26;71.95;102056.63;4973798;28;45450;-73
2023/02/02 04:48:39;;;;;;;;;4.00;4.00;;;;;7.30;71.45;102064.47;4973423;28;45493;-72
2023/02/02 04:51:07;;;;;;;;;3.25;3.25;;;;;7.27;71.78;102058.38;4973899;28;45506;-74
2023/02/02 04:53:32;;;;;;;;;5.25;5.25;;;;;7.27;71.36;102055.75;4973861;28;46039;-72
2023/02/02 04:56:13;;;;;;;;;5.00;5.00;;;;;7.30;72.11;102055.72;4976457;28;45352;-75
2023/02/02 04:58:38;;;;;;;;;4.25;4.25;;;;;7.34;71.92;102064.47;4973064;28;45375;-74
2023/02/02 05:01:12;;;;;;;;;4.75;4.75;;;;;7.37;72.52;102073.16;4975984;28;45614;-76
2023/02/02 05:03:38;;;;;;;;;5.75;5.75;;;;;7.32;72.30;102061.84;4971454;28;45409;-74
2023/02/02 05:06:04;;;;;;;;;5.50;5.50;;;;;7.40;72.52;102075.78;4971597;28;45369;-74
2023/02/02 05:08:30;;;;;;;;;5.75;5.25;;;;;7.41;71.95;102072.28;4972822;28;45379;-73
2023/02/02 05:10:59;;;;;;;;;7.50;6.25;;;;;7.38;72.61;102067.06;4973442;28;45527;-74
2023/02/02 05:13:24;;;;;;;;;4.00;4.00;;;;;7.40;72.22;102075.78;4972130;28;48076;-73
2023/02/02 05:15:50;;;;;;;;;4.00;4.00;;;;;7.42;71.59;102074.06;4975743;28;45228;-72
2023/02/02 05:18:15;;;;;;;;;3.00;3.00;;;;;7.36;71.88;102076.66;4975729;28;45176;-73
2023/02/02 05:20:40;;;;;;;;;4.00;4.00;;;;;7.44;71.69;102088.00;4975936;28;45411;-69
2023/02/02 05:23:06;;;;;;;;;3.75;3.75;;;;;7.45;71.72;102081.91;4974627;28;53543;-72
2023/02/02 05:25:31;;;;;;;;;9.00;8.25;;;;;7.44;71.75;102088.00;4974956;28;45261;-74
2023/02/02 05:27:56;;;;;;;;;3.25;3.25;;;;;7.41;72.31;102085.38;4976652;28;45219;-74
2023/02/02 05:30:21;;;;;;;;;4.25;3.00;;;;;7.41;72.63;102087.13;4976965;28;45190;-74
2023/02/02 05:32:47;;;;;;;;;3.00;3.00;;;;;7.40;71.97;102085.38;4976380;28;45722;-73
2023/02/02 05:35:12;;;;;;;;;2.50;2.50;;;;;7.35;72.25;102085.38;4976174;28;45445;-72
2023/02/02 05:37:37;;;;;;;;;3.75;3.75;;;;;7.36;72.69;102087.13;4976588;28;45693;-74
2023/02/02 05:40:03;;;;;;;;;5.00;5.00;;;;;7.34;72.05;102081.03;4975278;28;45649;-74
2023/02/02 05:42:29;;;;;;;;;6.25;5.00;;;;;7.35;72.23;102085.38;4975532;28;48141;-73
2023/02/02 05:44:54;;;;;;;;;3.25;3.25;;;;;7.35;71.97;102072.31;4976195;28;55546;-71
2023/02/02 05:47:20;;;;;;;;;4.25;4.00;;;;;7.41;72.11;102090.59;4978150;28;45370;-75
2023/02/02 05:49:45;;;;;;;;;5.00;5.00;;;;;7.45;72.23;102089.75;4975695;28;45556;-75
2023/02/02 05:52:16;;;;;;;;;4.00;4.00;;;;;7.44;72.38;102090.63;4974664;28;47120;-72
2023/02/02 05:54:43;;;;;;;;;3.25;3.25;;;;;7.43;72.26;102088.88;4976002;28;45476;-72
2023/02/02 05:57:08;;;;;;;;;3.00;3.00;;;;;7.43;72.35;102090.63;4976543;28;45436;-74
2023/02/02 05:59:33;;;;;;;;;4.00;4.00;;;;;7.42;72.36;102091.50;4976362;28;45461;-73
2023/02/02 06:01:59;;;;;;;;;4.50;4.50;;;;;7.43;72.35;102096.75;4975881;28;61374;-74
2023/02/02 06:04:24;;;;;;;;;2.50;2.00;;;;;7.38;72.38;102093.22;4975391;28;45316;-73
2023/02/02 06:06:50;;;;;;;;;3.00;3.00;;;;;7.38;72.33;102095.00;4976175;28;45455;-73
2023/02/02 06:09:15;;;;;;;;;3.25;3.00;;;;;7.42;72.63;102102.84;4976059;28;45395;-71
2023/02/02 06:11:42;;;;;;;;;3.00;3.00;;;;;7.42;71.89;102100.25;4973448;28;48522;-74
2023/02/02 06:14:07;;;;;;;;;5.25;5.25;;;;;7.45;72.56;102107.19;4975782;28;45415;-71
2023/02/02 06:16:33;;;;;;;;;4.00;4.00;;;;;7.48;73.24;102108.94;4975998;28;46942;-73
2023/02/02 06:18:58;;;;;;;;;6.25;3.00;;;;;7.50;72.99;102112.44;4976896;28;45429;-74
2023/02/02 06:21:23;;;;;;;;;3.00;3.00;;;;;7.53;72.83;102101.94;4976177;28;46140;-71
2023/02/02 06:23:49;;;;;;;;;2.75;2.75;;;;;7.56;72.16;102107.19;4975613;28;45418;-72
2023/02/02 06:26:15;;;;;;;;;5.50;4.75;;;;;7.58;72.37;102105.44;4977881;28;45196;-74
2023/02/02 06:28:42;;;;;;;;;5.75;5.75;;;;;7.59;72.55;102109.78;4977160;28;45526;-73
2023/02/02 06:31:09;;;;;;;;;5.75;5.50;;;;;7.61;73.05;102118.50;4975722;28;46398;-73
2023/02/02 06:33:35;;;;;;;;;8.00;8.00;;;;;7.58;72.59;102115.91;4978018;28;45471;-74
2023/02/02 06:36:03;;;;;;;;;7.00;7.00;;;;;7.59;72.61;102112.41;4981303;28;45458;-74
2023/02/02 06:38:29;;;;;;;;;8.75;7.50;;;;;7.68;72.80;102121.97;4980217;28;45405;-76
2023/02/02 06:40:54;;;;;;;;;4.75;4.75;;;;;7.69;72.01;102114.13;4978266;28;47737;-74
2023/02/02 06:43:20;;;;;;;;;3.00;3.00;;;;;7.74;71.96;102119.31;4979843;28;45510;-74
2023/02/02 06:45:45;;;;;;;;;2.00;2.00;;;;;7.73;72.02;102114.97;4987739;28;45426;-75
2023/02/02 06:48:10;;;;;;;;;4.00;3.00;;;;;7.74;72.49;102116.69;4962950;28;47969;-75
2023/02/02 06:50:37;;;;;;;;;9.25;6.25;;;;;7.77;72.49;102123.69;4957053;28;47246;-77
2023/02/02 06:53:02;;;;;;;;;4.00;4.00;;;;;7.80;72.25;102115.81;4975388;28;45212;-72
2023/02/02 06:55:28;;;;;;;;;7.00;5.25;;;;;7.81;72.24;102118.41;4974983;28;45430;-76
2023/02/02 06:57:57;;;;;;;;;3.00;3.00;;;;;7.86;72.43;102124.50;4993245;28;45531;-71
2023/02/02 07:00:24;;;;;;;;;10.25;10.25;;;;;7.87;71.90;102128.88;4969011;28;45741;-72
2023/02/02 07:02:50;;;;;;;;;5.25;5.25;;;;;7.79;71.31;102104.47;4975276;28;45330;-74
2023/02/02 07:05:18;;;;;;;;;3.50;3.00;;;;;7.86;71.59;102115.78;4974993;28;45292;-74
2023/02/02 07:07:44;;;;;;;;;3.50;3.50;;;;;7.90;71.78;102122.78;4974380;28;45589;-72
2023/02/02 07:10:10;;;;;;;;;12.50;12.50;;;;;7.79;72.00;102101.84;4972188;28;45437;-71
2023/02/02 07:12:35;;;;;;;;;4.25;4.25;;;;;7.93;71.08;102129.72;4973329;28;45369;-71
2023/02/02 07:15:01;;;;;;;;;5.25;5.25;;;;;7.94;71.49;102123.59;4974456;28;45399;-73
2023/02/02 07:17:26;;;;;;;;;4.25;3.75;;;;;7.94;71.02;102129.72;4973714;28;45379;-73
2023/02/02 07:19:51;;;;;;;;;6.50;6.50;;;;;7.89;71.91;102121.88;4975174;28;47070;-71
2023/02/02 07:22:17;;;;;;;;;6.00;6.00;;;;;7.98;71.28;102128.00;4973627;28;45378;-74
2023/02/02 07:24:42;;;;;;;;;4.75;4.25;;;;;8.00;71.43;102127.09;4971727;28;45342;-73
2023/02/02 07:27:07;;;;;;;;;9.00;8.75;;;;;8.04;71.54;102125.34;4972714;28;45579;-75
2023/02/02 07:29:33;;;;;;;;;3.00;3.00;;;;;8.05;70.92;102121.84;4974259;28;55044;-72
2023/02/02 07:31:58;;;;;;;;;4.75;4.75;;;;;8.03;70.49;102134.06;4974373;28;45235;-73
2023/02/02 07:34:24;;;;;;;;;5.75;5.75;;;;;8.03;71.14;102129.69;4974147;27;45171;-71
2023/02/02 07:36:50;;;;;;;;;3.50;3.50;;;;;8.06;70.52;102141.03;4973832;28;45498;-71
2023/02/02 07:39:15;;;;;;;;;4.50;4.50;;;;;7.97;70.96;102129.72;4973514;28;46110;-69
2023/02/02 07:41:42;;;;;;;;;4.50;4.50;;;;;8.03;71.27;102134.06;4973640;28;45364;-70
2023/02/02 07:44:14;;;;;;;;;17.75;17.75;;;;;8.07;71.04;102145.41;4973765;28;45554;-70
2023/02/02 07:46:43;;;;;;;;;14.00;13.25;;;;;8.11;70.78;102145.41;4973453;28;45253;-72
2023/02/02 07:49:13;;;;;;;;;5.75;4.00;;;;;8.14;70.73;102148.00;4973175;28;46251;-72
2023/02/02 07:51:39;;;;;;;;;7.00;6.50;;;;;8.15;71.07;102152.38;4972028;28;45367;-73
2023/02/02 07:54:04;;;;;;;;;4.25;4.25;;;;;8.17;71.10;102147.09;4973830;28;45269;-74
2023/02/02 07:56:30;;;;;;;;;4.25;4.25;;;;;8.18;70.86;102143.59;4973685;28;45652;-72
2023/02/02 07:58:56;;;;;;;;;6.00;6.00;;;;;8.22;70.96;102149.72;4973154;28;45571;-72
2023/02/02 08:01:24;;;;;;;;;7.50;6.50;;;;;8.24;70.96;102147.94;4973204;28;45272;-73
2023/02/02 08:03:52;;;;;;;;;6.50;5.75;;;;;8.24;70.91;102146.19;4972156;28;45328;-72
2023/02/02 08:06:27;;;;;;;;;3.00;3.00;;;;;8.26;70.22;102154.06;4973509;28;45384;-72
2023/02/02 08:08:52;;;;;;;;;5.50;5.50;;;;;8.20;70.14;102157.56;4973070;28;47146;-73
2023/02/02 08:11:20;;;;;;;;;6.50;6.50;;;;;8.20;70.85;102154.94;4974896;28;45190;-71
2023/02/02 08:13:54;;;;;;;;;4.50;4.50;;;;;8.17;70.16;102153.22;4972622;28;45361;-74
2023/02/02 08:16:20;;;;;;;;;3.00;3.00;;;;;8.23;70.03;102157.56;4973523;28;45243;-71
2023/02/02 08:18:46;;;;;;;;;5.00;5.00;;;;;8.25;70.64;102160.19;4972581;28;46088;-74
2023/02/02 08:21:12;;;;;;;;;4.25;4.25;;;;;8.24;70.03;102154.06;4971613;28;45408;-73
2023/02/02 08:23:39;;;;;;;;;5.75;5.75;;;;;8.18;70.08;102154.09;4973722;28;45311;-73
2023/02/02 08:26:25;;;;;;;;;6.00;6.00;;;;;8.25;70.00;102171.53;4973277;28;45409;-73
2023/02/02 08:28:55;;;;;;;;;7.75;7.75;;;;;8.25;70.58;102176.75;4972676;28;46291;-73
2023/02/02 08:31:24;;;;;;;;;5.25;5.25;;;;;8.28;70.04;102174.13;4973202;28;45443;-75
2023/02/02 08:33:50;;;;;;;;;8.00;8.00;;;;;8.32;70.14;102181.09;4972735;28;45339;-75
2023/02/02 08:36:18;;;;;;;;;6.50;6.50;;;;;8.34;70.09;102181.09;4972844;28;45399;-74
2023/02/02 08:38:44;;;;;;;;;7.50;7.50;;;;;8.37;70.35;102182.81;4972872;28;45339;-74
2023/02/02 08:41:11;;;;;;;;;6.75;6.75;;;;;8.35;70.09;102174.97;4973521;28;45315;-72
2023/02/02 08:43:37;;;;;;;;;14.50;14.00;;;;;8.41;70.74;102184.56;4973280;28;45375;-73
2023/02/02 08:46:04;;;;;;;;;5.50;5.50;;;;;8.43;70.07;102182.78;4972984;28;45653;-74
2023/02/02 08:48:29;;;;;;;;;6.75;6.75;;;;;8.41;70.35;102184.56;4972159;28;46335;-73
2023/02/02 08:50:56;;;;;;;;;4.50;4.50;;;;;8.45;69.67;102184.53;4973130;28;45453;-72
2023/02/02 08:53:22;;;;;;;;;5.50;5.50;;;;;8.46;69.83;102185.41;4971386;28;45460;-72
2023/02/02 08:55:57;;;;;;;;;6.50;6.50;;;;;8.48;70.07;102181.91;4973590;28;45624;-74
2023/02/02 08:58:22;;;;;;;;;5.50;5.50;;;;;8.51;69.84;102183.69;4972979;28;45468;-72
2023/02/02 09:00:48;;;;;;;;;5.25;5.25;;;;;8.51;69.57;102186.31;4973104;28;45297;-74
2023/02/02 09:03:15;;;;;;;;;4.25;2.50;;;;;8.50;69.46;102191.53;4973824;28;45257;-74
2023/02/02 09:05:40;;;;;;;;;6.00;6.00;;;;;8.49;69.82;102193.31;4973872;28;45461;-73
2023/02/02 09:08:06;;;;;;;;;5.25;5.25;;;;;8.47;69.14;102200.25;4972268;28;52048;-72
2023/02/02 09:10:34;;;;;;;;;3.75;3.75;;;;;8.47;69.67;102198.50;4972888;28;45375;-71
2023/02/02 09:13:00;;;;;;;;;4.50;4.50;;;;;8.50;69.42;102204.66;4972949;28;45393;-73
2023/02/02 09:15:25;;;;;;;;;7.25;6.00;;;;;8.46;69.66;102195.88;4971720;28;45446;-72
2023/02/02 09:17:51;;;;;;;;;6.00;6.00;;;;;8.51;69.47;102202.03;4972965;28;45342;-71
2023/02/02 09:20:16;;;;;;;;;13.25;13.25;;;;;8.59;69.69;102207.22;4971222;28;45356;-71
2023/02/02 09:22:42;;;;;;;;;5.75;5.50;;;;;8.61;69.20;102206.34;4973155;28;45303;-73
2023/02/02 09:25:07;;;;;;;;;13.25;12.50;;;;;8.68;69.35;102214.19;4972892;28;45525;-73
2023/02/02 09:27:36;;;;;;;;;7.00;7.00;;;;;8.74;69.54;102219.41;4972472;28;48957;-73
2023/02/02 09:30:02;;;;;;;;;5.50;5.50;;;;;8.75;69.26;102221.13;4972416;28;45240;-73
2023/02/02 09:32:27;;;;;;;;;5.00;5.00;;;;;8.86;69.59;102226.28;4972039;28;45334;-72
2023/02/02 09:34:53;;;;;;;;;9.00;9.00;;;;;8.88;68.76;102233.28;4971874;28;48343;-73
2023/02/02 09:37:18;;;;;;;;;6.00;6.00;;;;;8.88;68.63;102240.28;4970380;28;48023;-72
2023/02/02 09:39:43;;;;;;;;;4.50;4.50;;;;;8.87;68.21;102234.19;4972272;28;45297;-71
2023/02/02 09:42:36;;;;;;;;;7.00;7.00;;;;;8.92;68.50;102249.88;4973658;28;45517;-71
2023/02/02 09:45:14;;;;;;;;;10.75;10.00;;;;;8.86;68.40;102242.94;4971952;28;45344;-72
2023/02/02 09:47:57;;;;;;;;;7.75;6.25;;;;;8.97;68.31;102249.84;4972095;28;47264;-72
2023/02/02 09:50:44;;;;;;;;;7.50;6.00;;;;;8.97;68.11;102248.09;4971773;28;45362;-73
2023/02/02 09:53:31;;;;;;;;;6.00;6.00;;;;;9.00;67.97;102255.94;4972392;28;45337;-71
2023/02/02 09:56:00;;;;;;;;;7.00;7.00;;;;;9.01;67.78;102256.84;4972183;28;45347;-72
2023/02/02 09:58:33;;;;;;;;;4.50;4.50;;;;;9.01;67.69;102252.47;4971415;28;46279;-71
2023/02/02 10:01:16;;;;;;;;;8.25;8.25;;;;;9.04;67.77;102249.81;4972616;28;45375;-70
2023/02/02 10:04:20;;;;;;;;;5.25;5.25;;;;;9.12;67.61;102256.78;4974667;28;45391;-72
2023/02/02 10:06:49;;;;;;;;;5.50;5.50;;;;;9.12;67.44;102256.78;4974793;28;45721;-72
2023/02/02 10:09:22;;;;;;;;;3.75;3.75;;;;;9.12;67.30;102255.00;4974677;28;46316;-73
2023/02/02 10:11:54;;;;;;;;;4.00;4.00;;;;;9.15;67.26;102254.97;4974571;28;45354;-72
2023/02/02 10:14:26;;;;;;;;;6.00;6.00;;;;;9.18;66.92;102268.09;4974766;28;45412;-73
2023/02/02 10:16:54;;;;;;;;;7.00;7.00;;;;;9.21;67.10;102254.06;4974774;28;45211;-74
2023/02/02 10:19:24;;;;;;;;;5.50;5.50;;;;;9.26;66.88;102260.16;4974466;28;45410;-72
2023/02/02 10:22:18;;;;;;;;;5.50;5.25;;;;;9.33;66.78;102266.22;4974502;28;45335;-72
2023/02/02 10:24:44;;;;;;;;;5.50;4.75;;;;;9.35;66.83;102256.56;4978081;27;45411;-74
2023/02/02 10:27:15;;;;;;;;;6.75;6.75;;;;;9.39;66.45;102255.66;4974745;28;45625;-73
2023/02/02 10:30:00;;;;;;;;;5.75;5.75;;;;;9.42;66.33;102258.25;4975871;28;46372;-73
2023/02/02 10:32:31;;;;;;;;;10.00;6.50;;;;;9.46;65.96;102265.22;4974434;28;45394;-73
2023/02/02 10:35:34;;;;;;;;;5.00;5.00;;;;;9.45;66.21;102267.88;4973436;28;45150;-72
2023/02/02 10:38:11;;;;;;;;;1.75;1.25;;;;;9.48;65.91;102268.72;4974442;28;45481;-73
2023/02/02 10:40:58;;;;;;;;;4.00;3.00;;;;;9.51;65.82;102273.09;4974120;28;45492;-73
2023/02/02 10:43:47;;;;;;;;;3.75;3.75;;;;;9.53;65.75;102273.94;4972768;28;45336;-74
2023/02/02 10:46:23;;;;;;;;;1.50;1.50;;;;;9.53;65.37;102275.69;4965263;28;45263;-72
2023/02/02 10:48:56;;;;;;;;;8.75;8.00;;;;;9.55;65.37;102285.31;4974394;28;45270;-72
2023/02/02 10:51:26;;;;;;;;;6.00;6.00;;;;;9.58;65.45;102277.41;4974225;28;46506;-73
2023/02/02 10:53:54;;;;;;;;;7.50;6.75;;;;;9.63;65.42;102287.88;4974168;28;45358;-72
2023/02/02 10:56:36;;;;;;;;;5.25;5.25;;;;;9.67;64.94;102280.84;4974111;28;45426;-72
2023/02/02 10:59:10;;;;;;;;;4.00;4.00;;;;;9.62;64.83;102270.38;4974382;28;45369;-73
2023/02/02 11:01:36;;;;;;;;;3.00;3.00;;;;;9.70;64.46;102278.19;4973977;28;45267;-73
2023/02/02 11:06:51;;;;;;;;;2.00;2.00;;;;;9.77;64.57;102272.88;4973509;28;45436;-73
2023/02/02 11:09:39;;;;;;;;;4.75;4.75;;;;;9.84;64.36;102272.81;4974616;28;45410;-73
2023/02/02 11:12:27;;;;;;;;;6.75;6.75;;;;;9.84;63.99;102271.03;4974092;28;46894;-72
2023/02/02 11:15:06;;;;;;;;;4.25;4.25;;;;;9.88;64.20;102280.63;4975661;28;45398;-72
2023/02/02 11:17:32;;;;;;;;;4.75;4.75;;;;;9.93;64.14;102265.69;4974812;28;45298;-73
2023/02/02 11:19:58;;;;;;;;;5.00;5.00;;;;;9.99;64.16;102266.50;4973026;28;45784;-73
2023/02/02 11:22:36;;;;;;;;;4.75;4.75;;;;;10.02;63.50;102264.72;4972474;28;46149;-73
2023/02/02 11:25:05;;;;;;;;;1.00;1.00;;;;;10.04;63.49;102252.44;4971054;28;45815;-72
2023/02/02 11:27:42;;;;;;;;;9.25;8.00;;;;;10.13;63.05;102255.84;4974094;28;45427;-72
2023/02/02 11:30:22;;;;;;;;;8.00;8.00;;;;;10.11;62.63;102242.72;4974985;28;45534;-71
2023/02/02 11:32:49;;;;;;;;;8.25;8.00;;;;;10.19;63.46;102253.13;4975600;28;45497;-71
2023/02/02 11:35:15;;;;;;;;;5.75;5.75;;;;;10.23;63.27;102252.22;4975626;28;45426;-72
2023/02/02 11:38:12;;;;;;;;;4.00;4.00;;;;;10.27;62.85;102250.44;4975384;28;45444;-71
2023/02/02 11:40:44;;;;;;;;;2.00;2.00;;;;;10.23;62.29;102242.56;4973493;28;45236;-71
2023/02/02 11:43:17;;;;;;;;;7.00;7.00;;;;;10.22;62.78;102238.22;4974844;28;45451;-72
2023/02/02 11:45:46;;;;;;;;;6.00;6.00;;;;;10.26;62.48;102238.16;4972548;28;45424;-71
2023/02/02 11:48:19;;;;;;;;;4.00;4.00;;;;;10.32;62.70;102238.09;4974387;27;45320;-72
2023/02/02 11:50:53;;;;;;;;;3.00;3.00;;;;;10.25;62.16;102218.03;4974385;27;45298;-72